Weather at Cumarebo Airport

Public forecast

Using degrees Celsius for public forecast. Weather courtesy of forecast.io.

Closest aviation weather report (METAR) to Cumarebo Airport

Report is more than 6 hours old.

Closest report is José Leonardo Chirinos Airport, 22.5 nm (41.7 km) WSW. Retrieved 2021/07/25 11:00 UTC (7 days ago):

SVCR 251100Z ZNIL

Closest aviation forecast (TAF) to Cumarebo Airport

Closest forecast is Hato International Airport, 45.6 nm (84.4 km) NNE. Retrieved 2021-08-01 00:00 UTC (24 minutes ago):

TAF TNCC 312315Z 0100/0124 10014KT 9999 SCT020 PROB30 TEMPO 0106/0114 7000 SHRA BKN014